Latest Weather Observations for Moruya Airport

IDN60901

Issued at 7:51 pm EST Sunday 20 August 2017 (issued every 10 minutes, with the page automatically refreshed every 10 minutes)

About weather observations | Map of Canberra area stations | Latest observations for Canberra area | Other Formats
Station Details ID: 069148 Name: MORUYA AIRPORT AWS Lat: -35.90 Lon: 150.14 Height: 4.0 m
Data from the previous 72 hours. | See also: Recent months at Moruya Airport
Date/Time
EST
Temp
°C
App
Temp
°C
Dew
Point
°C
Rel
Hum
%
Delta-T
°C
Wind Press
QNH
hPa
Press
MSL
hPa
Rain since
9am
mm
Dir  Spd
km/h
Gust
km/h
Spd
kts
Gust
kts
20/07:30pm 8.0 6.7 4.2 77 1.7 CALM 0 0 0 0 1021.6 1021.6 0.0
20/07:00pm 8.6 6.1 4.8 77 1.7 NW 7 9 4 5 1021.7 1021.7 0.0
20/06:30pm 8.7 6.2 3.7 71 2.2 ENE 6 11 3 6 1021.5 1021.5 0.0
20/06:00pm 9.9 7.7 3.4 64 2.8 E 4 9 2 5 1021.4 1021.4 0.0
20/05:30pm 12.3 9.3 4.3 58 3.6 E 9 11 5 6 1021.3 1021.3 0.0
20/05:00pm 12.9 9.5 3.8 54 4.1 E 11 15 6 8 1021.3 1021.3 0.0
20/04:30pm 13.4 9.6 3.8 52 4.3 ESE 13 19 7 10 1021.3 1021.3 0.0
20/04:00pm 13.8 9.6 3.9 51 4.5 ESE 15 20 8 11 1021.3 1021.3 0.0
20/03:30pm 14.3 10.4 3.5 48 4.9 ESE 13 20 7 11 1021.5 1021.5 0.0
20/03:00pm 14.6 10.4 3.7 48 4.9 ESE 15 19 8 10 1021.6 1021.6 0.0
20/02:30pm 14.6 10.0 3.7 48 5.0 ESE 17 20 9 11 1021.7 1021.7 0.0
20/02:00pm 14.5 10.2 3.3 47 5.0 ESE 15 20 8 11 1022.1 1022.1 0.0
20/01:30pm 14.9 10.4 2.4 43 5.5 ESE 15 20 8 11 1022.3 1022.3 0.0
20/01:00pm 15.0 10.8 1.9 41 5.7 SE 13 22 7 12 1022.7 1022.7 0.0
20/12:30pm 15.2 11.7 1.0 38 6.1 S 9 17 5 9 1023.1 1023.1 0.0
20/12:00pm 15.2 10.8 0.6 37 6.2 SSW 13 20 7 11 1023.3 1023.3 0.0
20/11:30am 14.9 10.2 1.1 39 6.0 SSW 15 20 8 11 1023.9 1023.9 0.0
20/11:00am 14.4 9.3 0.6 39 5.8 SSW 17 30 9 16 1024.3 1024.3 0.0
20/10:30am 13.8 8.1 0.8 41 5.5 SSW 20 30 11 16 1024.4 1024.4 0.0
20/10:00am 13.5 8.7 0.5 41 5.4 SSW 15 24 8 13 1024.6 1024.6 0.0
20/09:30am 12.4 8.4 0.5 44 5.0 WSW 11 19 6 10 1024.7 1024.7 0.0
20/09:00am 11.1 7.0 -0.1 46 4.5 W 11 17 6 9 1025.0 1025.0 0.0
20/08:30am 8.7 5.1 0.4 56 3.3 WSW 9 13 5 7 1025.1 1025.1 0.0
20/08:00am 6.9 3.5 -0.3 60 2.8 W 7 11 4 6 1024.9 1024.9 0.0
20/07:30am 4.6 0.9 -0.2 71 1.8 W 9 13 5 7 1024.8 1024.8 0.0
20/07:00am 1.3 -2.5 -0.9 85 0.8 WSW 9 11 5 6 1024.3 1024.3 0.0
20/06:30am 1.1 -2.4 -1.1 85 0.8 WSW 7 9 4 5 1024.0 1024.0 0.0
20/06:00am 1.4 -2.1 -1.3 82 0.9 W 7 9 4 5 1023.6 1023.6 0.0
20/05:30am 2.1 -1.4 -1.7 76 1.3 WSW 7 9 4 5 1023.6 1023.6 0.0
20/05:00am 2.5 -1.4 -1.8 73 1.5 WSW 9 11 5 6 1023.5 1023.5 0.0
20/04:30am 2.1 -1.9 -1.9 75 1.4 W 9 13 5 7 1023.5 1023.5 0.0
20/04:00am 1.9 -1.6 -1.7 77 1.3 WSW 7 11 4 6 1023.4 1023.4 0.0
20/03:30am 4.6 0.7 -1.8 63 2.3 W 9 15 5 8 1023.4 1023.4 0.0
20/03:00am 4.7 0.8 -1.7 63 2.3 W 9 15 5 8 1023.4 1023.4 0.0
20/02:30am 4.6 0.7 -1.8 63 2.3 W 9 13 5 7 1023.3 1023.3 0.0
20/02:00am 3.9 0.0 -1.7 67 2.0 WSW 9 15 5 8 1023.2 1023.2 0.0
20/01:30am 3.1 -0.8 -1.4 72 1.6 W 9 13 5 7 1023.4 1023.4 0.0
20/01:00am 5.0 1.1 -1.4 63 2.3 W 9 15 5 8 1023.3 1023.3 0.0
20/12:30am 5.3 1.0 -1.4 62 2.5 WSW 11 15 6 8 1023.3 1023.3 0.0
20/12:00am 4.8 0.9 -1.6 63 2.3 WSW 9 13 5 7 1023.3 1023.3 0.0
 
Date/Time
EST
Temp
°C
App
Temp
°C
Dew
Point
°C
Rel
Hum
%
Delta-T
°C
Wind Press
QNH
hPa
Press
MSL
hPa
Rain since
9am
mm
Dir  Spd
km/h
Gust
km/h
Spd
kts
Gust
kts
19/11:30pm 5.3 1.4 -1.8 60 2.6 WSW 9 15 5 8 1023.5 1023.5 0.0
19/11:00pm 5.7 1.8 -1.7 59 2.7 W 9 13 5 7 1023.5 1023.5 0.0
19/10:30pm 5.7 1.8 -1.7 59 2.7 W 9 13 5 7 1023.6 1023.6 0.0
19/10:00pm 6.9 2.6 -1.7 54 3.2 WSW 11 15 6 8 1023.7 1023.7 0.0
19/09:30pm 7.7 3.0 -1.5 52 3.5 SW 13 17 7 9 1023.8 1023.8 0.0
19/09:00pm 8.5 2.6 -1.9 48 3.9 SW 19 24 10 13 1023.9 1023.9 0.0
19/08:30pm 8.6 3.9 -1.8 48 3.9 WSW 13 20 7 11 1023.5 1023.5 0.0
19/08:00pm 8.4 3.3 -2.0 48 3.9 SW 15 19 8 10 1023.1 1023.1 0.0
19/07:30pm 9.6 3.7 -2.0 44 4.4 SW 19 26 10 14 1022.9 1022.9 0.0
19/07:00pm 9.2 4.1 -2.1 45 4.3 SW 15 22 8 12 1022.6 1022.6 0.0
19/06:30pm 8.9 4.2 -2.1 46 4.2 SW 13 19 7 10 1022.2 1022.2 0.0
19/06:00pm 10.4 5.3 -1.6 43 4.6 SSW 15 20 8 11 1021.7 1021.7 0.0
19/05:30pm 11.5 6.2 -0.6 43 4.9 SSW 17 20 9 11 1021.3 1021.3 0.0
19/05:00pm 12.1 7.1 1.4 48 4.5 S 17 24 9 13 1020.8 1020.8 0.0
19/04:30pm 12.8 6.5 3.7 54 4.1 S 26 39 14 21 1020.4 1020.4 0.0
19/04:00pm 14.5 7.6 -2.8 30 6.8 SSW 24 33 13 18 1019.9 1019.9 0.0
19/03:30pm 14.4 6.8 -2.5 31 6.7 SSW 28 41 15 22 1019.7 1019.7 0.0
19/03:00pm 14.9 7.3 -2.5 30 6.9 SSW 28 43 15 23 1019.3 1019.3 0.0
19/02:30pm 14.4 7.9 -2.1 32 6.6 SSW 22 35 12 19 1019.0 1019.0 0.0
19/02:00pm 14.0 7.9 -2.4 32 6.5 SSW 20 33 11 18 1018.8 1018.8 0.0
19/01:30pm 14.3 7.8 -2.1 32 6.6 SSW 22 30 12 16 1018.8 1018.8 0.0
19/01:00pm 14.5 7.8 -1.2 34 6.4 SSW 24 41 13 22 1018.7 1018.7 0.0
19/12:30pm 14.0 6.8 -2.0 33 6.4 SSW 26 37 14 20 1018.6 1018.6 0.0
19/12:10pm 14.7 7.2 -1.4 33 6.6 SSW 28 48 15 26 1018.6 1018.6 0.0
19/12:00pm 14.4 6.5 -1.6 33 6.5 SSW 30 43 16 23 1018.7 1018.7 0.0
19/11:43am 14.6 7.1 -1.1 34 6.4 SSW 28 46 15 25 1018.7 1018.7 0.0
19/11:30am 13.7 5.2 -1.9 34 6.2 SSW 33 50 18 27 1018.8 1018.8 0.0
19/11:23am 14.3 5.9 -2.1 32 6.6 SSW 32 50 17 27 1018.8 1018.8 0.0
19/11:00am 13.2 6.3 -2.3 34 6.1 SSW 24 37 13 20 1018.9 1018.9 0.0
19/10:48am 13.3 5.3 -2.2 34 6.1 SSW 30 48 16 26 1018.9 1018.9 0.0
19/10:30am 12.9 4.9 -2.2 35 5.9 SSW 30 43 16 23 1018.9 1018.9 0.0
19/10:21am 12.9 5.4 -1.4 37 5.7 SSW 28 46 15 25 1018.9 1018.9 0.0
19/10:00am 13.0 5.9 -1.3 37 5.7 SW 26 39 14 21 1018.7 1018.7 0.0
19/09:30am 12.3 5.1 -2.0 37 5.6 SSW 26 43 14 23 1018.6 1018.6 0.0
19/09:12am 12.0 4.5 -1.5 39 5.3 SW 28 46 15 25 1018.6 1018.6 0.0
19/09:00am 11.6 4.8 -1.5 40 5.2 SW 24 39 13 21 1018.4 1018.4 0.0
19/08:30am 10.8 4.8 -1.6 42 4.8 SW 20 28 11 15 1018.1 1018.1 0.0
19/08:00am 10.2 4.8 -1.2 45 4.4 SW 17 20 9 11 1017.8 1017.8 0.0
19/07:30am 9.2 4.5 -1.8 46 4.2 WSW 13 20 7 11 1017.2 1017.2 0.0
19/07:00am 8.5 3.4 -1.9 48 3.9 WSW 15 24 8 13 1016.6 1016.6 0.0
19/06:30am 8.2 3.0 -2.4 47 3.9 WSW 15 20 8 11 1016.0 1016.0 0.0
19/06:00am 8.4 2.8 -2.5 46 4.0 WSW 17 26 9 14 1015.6 1015.6 0.0
19/05:30am 8.8 2.6 -2.8 44 4.3 SW 20 33 11 18 1015.3 1015.3 0.0
19/05:00am 8.9 2.8 -2.4 45 4.2 SW 20 33 11 18 1014.7 1014.7 0.0
19/04:30am 9.2 2.7 -2.7 43 4.4 SW 22 33 12 18 1014.3 1014.3 0.0
19/04:00am 9.3 3.8 -2.0 45 4.3 WSW 17 24 9 13 1014.0 1014.0 0.0
19/03:30am 9.8 3.9 -1.9 44 4.5 WSW 19 28 10 15 1013.6 1013.6 0.0
19/03:00am 10.2 4.2 -1.8 43 4.6 WSW 20 32 11 17 1013.5 1013.5 0.0
19/02:30am 10.2 4.2 -1.8 43 4.6 WSW 20 32 11 17 1013.4 1013.4 0.0
19/02:00am 10.1 4.1 -1.6 44 4.5 WSW 20 33 11 18 1013.4 1013.4 0.0
19/01:30am 10.6 3.8 -2.1 41 4.9 SW 24 37 13 20 1013.0 1013.0 0.0
19/01:00am 9.7 5.1 -1.3 46 4.3 SW 13 20 7 11 1012.6 1012.6 0.0
19/12:30am 10.4 5.4 -1.0 45 4.5 WSW 15 24 8 13 1012.0 1012.0 0.0
19/12:00am 10.6 4.9 -1.1 44 4.6 SW 19 28 10 15 1012.3 1012.3 0.0
 
Date/Time
EST
Temp
°C
App
Temp
°C
Dew
Point
°C
Rel
Hum
%
Delta-T
°C
Wind Press
QNH
hPa
Press
MSL
hPa
Rain since
9am
mm
Dir  Spd
km/h
Gust
km/h
Spd
kts
Gust
kts
18/11:30pm 10.8 5.1 -0.9 44 4.6 SW 19 28 10 15 1012.1 1012.1 0.0
18/11:00pm 10.8 4.5 -0.9 44 4.6 SW 22 35 12 19 1011.7 1011.7 0.0
18/10:30pm 11.0 3.9 -1.1 43 4.8 SW 26 37 14 20 1011.8 1011.8 0.0
18/10:00pm 11.1 3.7 -0.7 44 4.7 SW 28 39 15 21 1011.6 1011.6 0.0
18/09:30pm 10.6 4.8 -0.2 47 4.3 SW 20 30 11 16 1011.8 1011.8 0.0
18/09:00pm 10.9 5.7 0.3 48 4.3 SSW 17 24 9 13 1011.4 1011.4 0.0
18/08:30pm 11.2 5.5 0.6 48 4.4 SSW 20 30 11 16 1011.0 1011.0 0.0
18/08:00pm 11.4 3.8 0.5 47 4.5 SW 30 41 16 22 1010.8 1010.8 0.0
18/07:30pm 12.7 5.4 -0.2 41 5.3 SW 28 46 15 25 1010.2 1010.2 0.0
18/07:22pm 13.0 7.6 -1.0 38 5.7 SW 17 46 9 25 1010.1 1010.1 0.0
18/07:00pm 11.5 8.0 -1.6 40 5.2 W 7 15 4 8 1009.6 1009.6 0.0
18/06:30pm 12.5 8.5 -2.1 36 5.7 WSW 9 15 5 8 1008.8 1008.8 0.0
18/06:00pm 13.1 8.8 -2.0 35 6.0 W 11 17 6 9 1008.0 1008.0 0.0
18/05:30pm 13.5 8.8 -2.0 34 6.2 W 13 20 7 11 1007.5 1007.5 0.0
18/05:00pm 14.6 9.1 -1.9 32 6.7 W 17 32 9 17 1006.8 1006.8 0.0
18/04:30pm 15.8 10.3 -2.2 29 7.3 W 17 26 9 14 1006.2 1006.2 0.0
18/04:00pm 16.9 11.4 -2.2 27 7.9 W 17 28 9 15 1005.6 1005.6 0.0
18/03:30pm 17.2 11.0 -3.0 25 8.2 WSW 20 30 11 16 1005.1 1005.1 0.0
18/03:00pm 17.3 10.3 -3.4 24 8.3 W 24 43 13 23 1004.8 1004.8 0.0
18/02:30pm 17.7 11.8 -2.0 26 8.2 W 19 32 10 17 1004.3 1004.3 0.0
18/02:00pm 16.9 9.5 -3.8 24 8.2 WSW 26 43 14 23 1004.2 1004.2 0.0
18/01:30pm 17.2 11.2 -3.0 25 8.2 WSW 19 41 10 22 1004.1 1004.1 0.0
18/01:00pm 17.3 10.4 -2.9 25 8.2 WSW 24 43 13 23 1003.9 1003.9 0.0
18/12:30pm 16.5 8.7 -3.6 25 8.0 WSW 28 46 15 25 1004.1 1004.1 0.0
18/12:00pm 17.6 9.9 -2.6 25 8.3 SW 28 43 15 23 1004.1 1004.1 0.0
18/11:30am 17.5 11.3 -3.3 24 8.4 WSW 20 33 11 18 1004.2 1004.2 0.0
18/11:00am 17.1 11.2 -2.5 26 8.0 WSW 19 32 10 17 1004.5 1004.5 0.0
18/10:30am 16.8 11.4 -1.3 29 7.6 W 17 30 9 16 1004.4 1004.4 0.0
18/10:00am 15.6 9.6 -2.8 28 7.4 W 19 32 10 17 1004.2 1004.2 0.0
18/09:30am 15.3 9.7 -3.1 28 7.3 W 17 28 9 15 1004.2 1004.2 0.0
18/09:00am 14.3 8.5 -1.7 33 6.5 W 19 30 10 16 1004.2 1004.2 0.0
18/08:30am 13.6 8.5 -1.9 34 6.2 W 15 28 8 15 1004.2 1004.2 0.0
18/08:00am 12.9 7.4 -2.2 35 6.0 W 17 33 9 18 1003.8 1003.8 0.0
18/07:30am 12.2 7.5 -2.0 37 5.6 W 13 22 7 12 1003.6 1003.6 0.0
18/07:00am 11.4 6.8 -1.4 41 5.1 W 13 22 7 12 1003.5 1003.5 0.0
18/06:30am 11.2 6.9 -1.5 41 5.0 WNW 11 20 6 11 1003.0 1003.0 0.0
18/06:00am 12.1 6.6 -1.8 38 5.5 W 17 30 9 16 1002.8 1002.8 0.0
18/05:30am 12.4 5.9 -2.2 36 5.7 W 22 39 12 21 1002.4 1002.4 0.0
18/05:00am 12.4 5.9 -2.2 36 5.7 WNW 22 37 12 20 1002.1 1002.1 0.0
18/04:30am 12.2 6.2 -1.7 38 5.5 WNW 20 35 11 19 1001.9 1001.9 0.0
18/04:00am 12.0 6.7 -0.5 42 5.1 WNW 17 39 9 21 1001.8 1001.8 0.0
18/03:30am 11.6 7.3 0.7 47 4.5 W 13 24 7 13 1002.1 1002.1 0.0
18/03:00am 11.7 7.4 1.1 48 4.5 WNW 13 26 7 14 1002.2 1002.2 0.0
18/02:30am 11.6 7.4 1.8 51 4.2 NW 13 26 7 14 1002.8 1002.8 0.0
18/02:00am 11.7 8.0 2.2 52 4.1 NW 11 20 6 11 1003.2 1003.2 0.0
18/01:30am 12.2 8.1 2.1 50 4.3 WNW 13 20 7 11 1003.4 1003.4 0.0
18/01:00am 12.6 8.5 2.2 49 4.5 WNW 13 30 7 16 1003.3 1003.3 0.0
18/12:30am 12.4 8.7 2.6 51 4.3 W 11 22 6 12 1004.0 1004.0 0.0
18/12:00am 12.7 8.7 3.1 52 4.3 WNW 13 32 7 17 1003.5 1003.5 0.0
 
Date/Time
EST
Temp
°C
App
Temp
°C
Dew
Point
°C
Rel
Hum
%
Delta-T
°C
Wind Press
QNH
hPa
Press
MSL
hPa
Rain since
9am
mm
Dir  Spd
km/h
Gust
km/h
Spd
kts
Gust
kts
17/11:30pm 12.6 8.3 3.3 53 4.1 WNW 15 24 8 13 1003.7 1003.7 0.0
17/11:00pm 12.4 9.4 3.9 56 3.8 WNW 9 17 5 9 1003.8 1003.8 0.0
17/10:30pm 13.0 8.4 3.9 54 4.1 WNW 17 30 9 16 1004.1 1004.1 0.0
17/10:00pm 13.3 9.5 3.9 53 4.3 W 13 24 7 13 1004.6 1004.6 0.0
17/09:30pm 14.2 9.2 3.4 48 4.9 W 19 28 10 15 1004.4 1004.4 0.0
17/09:00pm 14.4 10.1 3.2 47 5.1 WNW 15 30 8 16 1003.9 1003.9 0.0
17/08:30pm 14.5 10.9 3.0 46 5.2 NW 11 20 6 11 1003.8 1003.8 0.0
17/08:00pm 14.5 11.2 2.7 45 5.3 WNW 9 20 5 11 1003.8 1003.8 0.0

Latest Capital City Observations: Canberra | Sydney | Melbourne | Brisbane | Adelaide | Perth | Hobart | Darwin

Other Formats:

Comma delimited format used in spreadsheet applications
http://www.bom.gov.au/fwo/IDN60903/IDN60903.95937.axf

JavaScript Object Notation format (JSON) in row-major order
http://www.bom.gov.au/fwo/IDN60903/IDN60903.95937.json